PWSweather.com
Personal Weather Stations
Station Observations
PENICUIKWS
PenicuikGB

PenicuikGB

Lat: 55.830932, Lon: -3.224533000000065

Elevation: 166

Station Type: Fine Offset

http://weather.penicuik.org

High Low Average
Temperature 66.6°F19.2°C 40.3°F4.6°C 50.2°F10.1°C
Dew Point 53.2°F11.8°C 40.0°F4.4°C 44.9°F7.2°C
Winds 3.1 mph 5.0 kmh Calm Calm 1.0 mph SSE1.6 kmh SSE
Wind Gusts 7.6 mph12.2 kmh -- 2.0 mph3.2 kmh
Humidity 99% 44% 84%
Pressure 30.09 in1019.0 mb 29.93 in1013.5 mb -
Precipitation 0.05 in1.3 mm - -
Hour Temp Dew Point Humidity Winds Wind Gusts Pressure Precip Precip Rate Daily Precip Total
12:00 AM 50.7°F10.4°C 47.9°F8.8°C 90% 1.7 mph SSW2.7 kmh SSW 3.8 mph6.1 kmh 30.09 in1019.0 mb 0.00 in0.0 mm 0.00 in0.0 mm 0.00 in0.0 mm
12:15 AM 50.4°F10.2°C 47.5°F8.6°C 90% 0.6 mph WSW1.0 kmh WSW 1.6 mph2.6 kmh 30.09 in1019.0 mb 0.00 in0.0 mm 0.00 in0.0 mm 0.00 in0.0 mm
12:30 AM 49.3°F9.6°C 46.8°F8.2°C 91% 1.3 mph NW2.1 kmh NW 2.2 mph3.5 kmh 30.09 in1019.0 mb 0.00 in0.0 mm 0.00 in0.0 mm 0.00 in0.0 mm
12:45 AM 47.8°F8.8°C 45.6°F7.6°C 92% 1.0 mph WNW1.6 kmh WNW 1.6 mph2.6 kmh 30.09 in1019.0 mb 0.00 in0.0 mm 0.00 in0.0 mm 0.00 in0.0 mm
01:15 AM 46.9°F8.3°C 45.3°F7.4°C 94% 1.2 mph SSW1.9 kmh SSW 2.2 mph3.5 kmh 30.09 in1019.0 mb 0.00 in0.0 mm 0.00 in0.0 mm 0.00 in0.0 mm
01:30 AM 46.8°F8.2°C 45.4°F7.4°C 95% 1.4 mph SW2.3 kmh SW 2.2 mph3.5 kmh 30.08 in1018.6 mb 0.00 in0.0 mm 0.00 in0.0 mm 0.00 in0.0 mm
01:45 AM 46.2°F7.9°C 44.9°F7.2°C 95% 0.9 mph SW1.4 kmh SW 1.6 mph2.6 kmh 30.09 in1019.0 mb 0.00 in0.0 mm 0.00 in0.0 mm 0.00 in0.0 mm
02:00 AM 45.5°F7.5°C 44.2°F6.8°C 95% 0.4 mph SW0.6 kmh SW 1.6 mph2.6 kmh 30.09 in1019.0 mb 0.00 in0.0 mm 0.00 in0.0 mm 0.00 in0.0 mm
02:15 AM 44.8°F7.1°C 43.4°F6.3°C 95% 0.6 mph NW1.0 kmh NW 1.6 mph2.6 kmh 30.09 in1019.0 mb 0.00 in0.0 mm 0.00 in0.0 mm 0.00 in0.0 mm
02:30 AM 44.2°F6.8°C 43.2°F6.2°C 96% 0.6 mph SW1.0 kmh SW 1.6 mph2.6 kmh 30.08 in1018.6 mb 0.00 in0.0 mm 0.00 in0.0 mm 0.00 in0.0 mm
02:45 AM 43.7°F6.5°C 42.6°F5.9°C 96% 0.4 mph WSW0.6 kmh WSW 1.6 mph2.6 kmh 30.07 in1018.3 mb 0.00 in0.0 mm 0.00 in0.0 mm 0.00 in0.0 mm
03:00 AM 43.2°F6.2°C 42.4°F5.8°C 97% 0.9 mph W1.4 kmh W 1.6 mph2.6 kmh 30.07 in1018.3 mb 0.00 in0.0 mm 0.00 in0.0 mm 0.00 in0.0 mm
03:15 AM 42.4°F5.8°C 41.9°F5.5°C 98% Calm Calm -- 30.07 in1018.3 mb 0.00 in0.0 mm 0.00 in0.0 mm 0.00 in0.0 mm
03:30 AM 41.9°F5.5°C 41.4°F5.2°C 98% 0.1 mph SW0.2 kmh SW 0.7 mph1.1 kmh 30.07 in1018.3 mb 0.00 in0.0 mm 0.00 in0.0 mm 0.00 in0.0 mm
03:45 AM 41.4°F5.2°C 40.8°F4.9°C 98% 0.4 mph WSW0.6 kmh WSW 1.6 mph2.6 kmh 30.06 in1017.9 mb 0.00 in0.0 mm 0.00 in0.0 mm 0.00 in0.0 mm
04:00 AM 40.8°F4.9°C 40.6°F4.8°C 99% Calm Calm -- 30.06 in1017.9 mb 0.00 in0.0 mm 0.00 in0.0 mm 0.00 in0.0 mm
04:15 AM 40.6°F4.8°C 40.4°F4.7°C 99% 0.2 mph N0.3 kmh N 1.6 mph2.6 kmh 30.06 in1017.9 mb 0.00 in0.0 mm 0.00 in0.0 mm 0.00 in0.0 mm
04:30 AM 40.3°F4.6°C 40.0°F4.4°C 99% 0.7 mph SW1.1 kmh SW 1.6 mph2.6 kmh 30.05 in1017.6 mb 0.00 in0.0 mm 0.00 in0.0 mm 0.00 in0.0 mm
04:45 AM 40.3°F4.6°C 40.0°F4.4°C 99% Calm Calm -- 30.06 in1017.9 mb 0.00 in0.0 mm 0.00 in0.0 mm 0.00 in0.0 mm
05:00 AM 40.5°F4.7°C 40.2°F4.6°C 99% 0.1 mph N0.2 kmh N 0.7 mph1.1 kmh 30.06 in1017.9 mb 0.00 in0.0 mm 0.00 in0.0 mm 0.00 in0.0 mm
05:15 AM 41.4°F5.2°C 41.1°F5.1°C 99% Calm Calm -- 30.06 in1017.9 mb 0.00 in0.0 mm 0.00 in0.0 mm 0.00 in0.0 mm
05:30 AM 42.6°F5.9°C 42.4°F5.8°C 99% 0.4 mph S0.6 kmh S 1.6 mph2.6 kmh 30.05 in1017.6 mb 0.00 in0.0 mm 0.00 in0.0 mm 0.00 in0.0 mm
05:45 AM 43.3°F6.3°C 42.8°F6.0°C 98% 0.4 mph NNE0.6 kmh NNE 0.7 mph1.1 kmh 30.05 in1017.6 mb 0.00 in0.0 mm 0.00 in0.0 mm 0.00 in0.0 mm
06:00 AM 44.4°F6.9°C 43.9°F6.6°C 98% Calm Calm -- 30.05 in1017.6 mb 0.00 in0.0 mm 0.00 in0.0 mm 0.00 in0.0 mm
06:15 AM 45.0°F7.2°C 44.2°F6.8°C 97% 0.6 mph SE1.0 kmh SE 2.2 mph3.5 kmh 30.04 in1017.3 mb 0.00 in0.0 mm 0.00 in0.0 mm 0.00 in0.0 mm
06:30 AM 46.0°F7.8°C 45.2°F7.3°C 97% 0.7 mph N1.1 kmh N 2.2 mph3.5 kmh 30.04 in1017.3 mb 0.00 in0.0 mm 0.00 in0.0 mm 0.00 in0.0 mm
06:45 AM 46.8°F8.2°C 46.5°F8.1°C 99% 1.5 mph SW2.4 kmh SW 2.2 mph3.5 kmh 30.05 in1017.6 mb 0.00 in0.0 mm 0.00 in0.0 mm 0.00 in0.0 mm
07:00 AM 48.0°F8.9°C 47.8°F8.8°C 99% 0.1 mph SE0.2 kmh SE 1.6 mph2.6 kmh 30.05 in1017.6 mb 0.00 in0.0 mm 0.00 in0.0 mm 0.00 in0.0 mm
07:15 AM 48.9°F9.4°C 48.7°F9.3°C 99% 1.5 mph SSE2.4 kmh SSE 3.8 mph6.1 kmh 30.04 in1017.3 mb 0.00 in0.0 mm 0.00 in0.0 mm 0.00 in0.0 mm
07:30 AM 50.2°F10.1°C 49.6°F9.8°C 98% 1.3 mph SW2.1 kmh SW 3.1 mph5.0 kmh 30.04 in1017.3 mb 0.00 in0.0 mm 0.00 in0.0 mm 0.00 in0.0 mm
07:45 AM 53.4°F11.9°C 52.6°F11.4°C 97% 0.8 mph S1.3 kmh S 1.6 mph2.6 kmh 30.04 in1017.3 mb 0.00 in0.0 mm 0.00 in0.0 mm 0.00 in0.0 mm
08:00 AM 57.7°F14.3°C 52.0°F11.1°C 81% 2.1 mph SW3.4 kmh SW 3.1 mph5.0 kmh 30.04 in1017.3 mb 0.00 in0.0 mm 0.00 in0.0 mm 0.00 in0.0 mm
08:15 AM 56.5°F13.6°C 48.7°F9.3°C 75% 1.5 mph S2.4 kmh S 2.2 mph3.5 kmh 30.03 in1016.9 mb 0.00 in0.0 mm 0.00 in0.0 mm 0.00 in0.0 mm
08:30 AM 57.0°F13.9°C 48.8°F9.3°C 74% 0.7 mph E1.1 kmh E 2.2 mph3.5 kmh 30.03 in1016.9 mb 0.00 in0.0 mm 0.00 in0.0 mm 0.00 in0.0 mm
08:45 AM 62.1°F16.7°C 52.2°F11.2°C 70% 1.1 mph N1.8 kmh N 2.2 mph3.5 kmh 30.03 in1016.9 mb 0.00 in0.0 mm 0.00 in0.0 mm 0.00 in0.0 mm
09:00 AM 66.6°F19.2°C 48.4°F9.1°C 52% 1.8 mph NNE2.9 kmh NNE 3.1 mph5.0 kmh 30.03 in1016.9 mb 0.00 in0.0 mm 0.00 in0.0 mm 0.00 in0.0 mm
09:15 AM 65.1°F18.4°C 48.1°F8.9°C 54% 1.9 mph N3.1 kmh N 3.1 mph5.0 kmh 30.02 in1016.6 mb 0.00 in0.0 mm 0.00 in0.0 mm 0.00 in0.0 mm
09:45 AM 66.6°F19.2°C 44.0°F6.7°C 44% 3.1 mph SSW5.0 kmh SSW 3.8 mph6.1 kmh 30.02 in1016.6 mb 0.00 in0.0 mm 0.00 in0.0 mm 0.00 in0.0 mm
10:00 AM 63.9°F17.7°C 43.3°F6.3°C 47% 1.9 mph NE3.1 kmh NE 3.1 mph5.0 kmh 30.02 in1016.6 mb 0.00 in0.0 mm 0.00 in0.0 mm 0.00 in0.0 mm
10:15 AM 60.4°F15.8°C 44.7°F7.1°C 56% 1.0 mph NNE1.6 kmh NNE 1.6 mph2.6 kmh 30.02 in1016.6 mb 0.00 in0.0 mm 0.00 in0.0 mm 0.00 in0.0 mm
10:30 AM 58.8°F14.9°C 46.3°F7.9°C 63% 1.2 mph NNE1.9 kmh NNE 2.2 mph3.5 kmh 30.01 in1016.3 mb 0.00 in0.0 mm 0.00 in0.0 mm 0.00 in0.0 mm
11:00 AM 63.7°F17.6°C 43.6°F6.4°C 48% 2.0 mph NNE3.2 kmh NNE 3.1 mph5.0 kmh 30.00 in1015.9 mb 0.00 in0.0 mm 0.00 in0.0 mm 0.00 in0.0 mm
11:15 AM 60.6°F15.9°C 45.3°F7.4°C 57% 1.6 mph N2.6 kmh N 2.2 mph3.5 kmh 30.00 in1015.9 mb 0.00 in0.0 mm 0.00 in0.0 mm 0.00 in0.0 mm
11:30 AM 62.1°F16.7°C 44.7°F7.1°C 53% 1.6 mph N2.6 kmh N 3.1 mph5.0 kmh 29.99 in1015.6 mb 0.00 in0.0 mm 0.00 in0.0 mm 0.00 in0.0 mm
11:45 AM 64.0°F17.8°C 46.6°F8.1°C 53% 1.2 mph NNE1.9 kmh NNE 2.2 mph3.5 kmh 30.00 in1015.9 mb 0.00 in0.0 mm 0.00 in0.0 mm 0.00 in0.0 mm
12:00 PM 60.6°F15.9°C 43.9°F6.6°C 54% 1.2 mph SW1.9 kmh SW 1.6 mph2.6 kmh 29.99 in1015.6 mb 0.00 in0.0 mm 0.00 in0.0 mm 0.00 in0.0 mm
12:15 PM 62.2°F16.8°C 45.9°F7.7°C 55% 2.3 mph N3.7 kmh N 3.1 mph5.0 kmh 29.99 in1015.6 mb 0.00 in0.0 mm 0.00 in0.0 mm 0.00 in0.0 mm
12:30 PM 60.1°F15.6°C 43.4°F6.3°C 54% 1.8 mph N2.9 kmh N 2.2 mph3.5 kmh 29.99 in1015.6 mb 0.00 in0.0 mm 0.00 in0.0 mm 0.00 in0.0 mm
12:45 PM 58.8°F14.9°C 44.5°F6.9°C 59% 0.7 mph N1.1 kmh N 1.6 mph2.6 kmh 29.99 in1015.6 mb 0.00 in0.0 mm 0.00 in0.0 mm 0.00 in0.0 mm
01:00 PM 56.3°F13.5°C 43.9°F6.6°C 63% 1.5 mph SSW2.4 kmh SSW 2.2 mph3.5 kmh 29.99 in1015.6 mb 0.00 in0.0 mm 0.00 in0.0 mm 0.00 in0.0 mm
01:15 PM 55.2°F12.9°C 45.2°F7.3°C 69% 1.8 mph SW2.9 kmh SW 3.8 mph6.1 kmh 30.00 in1015.9 mb 0.00 in0.0 mm 0.00 in0.0 mm 0.00 in0.0 mm
01:30 PM 51.8°F11.0°C 45.8°F7.7°C 80% 2.8 mph S4.5 kmh S 3.8 mph6.1 kmh 29.99 in1015.6 mb 0.01 in0.3 mm 0.04 in1.0 mm 0.01 in0.3 mm
01:45 PM 53.2°F11.8°C 48.5°F9.2°C 84% 2.1 mph SE3.4 kmh SE 3.8 mph6.1 kmh 30.00 in1015.9 mb 0.01 in0.3 mm 0.00 in0.0 mm 0.01 in0.3 mm
02:00 PM 53.1°F11.7°C 47.7°F8.7°C 82% 1.5 mph SSW2.4 kmh SSW 3.1 mph5.0 kmh 29.99 in1015.6 mb 0.01 in0.3 mm 0.00 in0.0 mm 0.01 in0.3 mm
02:15 PM 54.7°F12.6°C 49.3°F9.6°C 82% 0.6 mph S1.0 kmh S 1.6 mph2.6 kmh 29.98 in1015.2 mb 0.01 in0.3 mm 0.00 in0.0 mm 0.01 in0.3 mm
02:30 PM 63.5°F17.5°C 53.2°F11.8°C 69% 0.5 mph ENE0.8 kmh ENE 2.2 mph3.5 kmh 29.98 in1015.2 mb 0.00 in0.0 mm 0.00 in0.0 mm 0.01 in0.3 mm
02:45 PM 62.4°F16.9°C 47.5°F8.6°C 58% 2.1 mph N3.4 kmh N 3.8 mph6.1 kmh 29.98 in1015.2 mb 0.00 in0.0 mm 0.00 in0.0 mm 0.01 in0.3 mm
03:00 PM 56.7°F13.7°C 45.0°F7.2°C 65% 2.4 mph NE3.9 kmh NE 3.1 mph5.0 kmh 29.98 in1015.2 mb 0.00 in0.0 mm 0.00 in0.0 mm 0.01 in0.3 mm
03:15 PM 55.0°F12.8°C 45.1°F7.3°C 69% 1.6 mph NE2.6 kmh NE 2.2 mph3.5 kmh 29.98 in1015.2 mb 0.00 in0.0 mm 0.00 in0.0 mm 0.01 in0.3 mm
03:30 PM 53.6°F12.0°C 45.2°F7.3°C 73% 1.2 mph NE1.9 kmh NE 3.1 mph5.0 kmh 29.98 in1015.2 mb 0.00 in0.0 mm 0.00 in0.0 mm 0.01 in0.3 mm
03:45 PM 54.0°F12.2°C 45.9°F7.7°C 74% 1.2 mph WSW1.9 kmh WSW 1.6 mph2.6 kmh 29.98 in1015.2 mb 0.01 in0.3 mm 0.04 in1.0 mm 0.02 in0.5 mm
04:00 PM 53.1°F11.7°C 45.7°F7.6°C 76% 1.4 mph SE2.3 kmh SE 3.1 mph5.0 kmh 29.98 in1015.2 mb 0.01 in0.3 mm 0.00 in0.0 mm 0.02 in0.5 mm
04:15 PM 52.9°F11.6°C 46.2°F7.9°C 78% 0.7 mph SSE1.1 kmh SSE 1.6 mph2.6 kmh 29.98 in1015.2 mb 0.01 in0.3 mm 0.00 in0.0 mm 0.02 in0.5 mm
04:30 PM 53.2°F11.8°C 45.9°F7.7°C 76% 0.6 mph NW1.0 kmh NW 1.6 mph2.6 kmh 29.97 in1014.9 mb 0.01 in0.3 mm 0.00 in0.0 mm 0.02 in0.5 mm
04:45 PM 52.7°F11.5°C 44.7°F7.1°C 74% 0.5 mph N0.8 kmh N 1.6 mph2.6 kmh 29.97 in1014.9 mb 0.00 in0.0 mm 0.00 in0.0 mm 0.02 in0.5 mm
05:00 PM 51.8°F11.0°C 44.1°F6.7°C 75% 1.1 mph N1.8 kmh N 1.6 mph2.6 kmh 29.98 in1015.2 mb 0.00 in0.0 mm 0.00 in0.0 mm 0.02 in0.5 mm
05:15 PM 51.4°F10.8°C 45.2°F7.3°C 79% 0.1 mph N0.2 kmh N 0.7 mph1.1 kmh 29.97 in1014.9 mb 0.00 in0.0 mm 0.00 in0.0 mm 0.02 in0.5 mm
05:30 PM 51.8°F11.0°C 45.8°F7.7°C 80% 0.5 mph N0.8 kmh N 2.2 mph3.5 kmh 29.97 in1014.9 mb 0.00 in0.0 mm 0.00 in0.0 mm 0.02 in0.5 mm
05:45 PM 50.5°F10.3°C 45.9°F7.7°C 84% 2.9 mph N4.7 kmh N 7.6 mph12.2 kmh 29.97 in1014.9 mb 0.01 in0.3 mm 0.04 in1.0 mm 0.04 in1.0 mm
06:00 PM 50.5°F10.3°C 47.1°F8.4°C 88% 0.5 mph N0.8 kmh N 1.6 mph2.6 kmh 29.97 in1014.9 mb 0.01 in0.3 mm 0.00 in0.0 mm 0.04 in1.0 mm
06:15 PM 49.8°F9.9°C 47.3°F8.5°C 91% 0.2 mph SW0.3 kmh SW 0.7 mph1.1 kmh 29.98 in1015.2 mb 0.01 in0.3 mm 0.00 in0.0 mm 0.04 in1.0 mm
06:30 PM 48.9°F9.4°C 46.7°F8.2°C 92% Calm Calm -- 29.97 in1014.9 mb 0.01 in0.3 mm 0.00 in0.0 mm 0.04 in1.0 mm
06:45 PM 48.2°F9.0°C 46.0°F7.8°C 92% 0.1 mph SE0.2 kmh SE 0.7 mph1.1 kmh 29.98 in1015.2 mb 0.00 in0.0 mm 0.00 in0.0 mm 0.04 in1.0 mm
07:15 PM 46.2°F7.9°C 44.9°F7.2°C 95% 0.4 mph SW0.6 kmh SW 1.6 mph2.6 kmh 29.98 in1015.2 mb 0.00 in0.0 mm 0.00 in0.0 mm 0.04 in1.0 mm
07:30 PM 45.9°F7.7°C 44.5°F6.9°C 95% 0.7 mph SW1.1 kmh SW 0.7 mph1.1 kmh 29.97 in1014.9 mb 0.00 in0.0 mm 0.00 in0.0 mm 0.04 in1.0 mm
08:00 PM 44.6°F7.0°C 43.5°F6.4°C 96% Calm Calm -- 29.98 in1015.2 mb 0.01 in0.3 mm 0.02 in0.5 mm 0.05 in1.3 mm
08:15 PM 43.9°F6.6°C 43.4°F6.3°C 98% Calm Calm -- 29.97 in1014.9 mb 0.01 in0.3 mm 0.00 in0.0 mm 0.05 in1.3 mm
08:30 PM 43.3°F6.3°C 42.8°F6.0°C 98% 0.3 mph SW0.5 kmh SW 0.7 mph1.1 kmh 29.97 in1014.9 mb 0.01 in0.3 mm 0.00 in0.0 mm 0.05 in1.3 mm
08:45 PM 43.5°F6.4°C 43.0°F6.1°C 98% 0.7 mph SSW1.1 kmh SSW 1.6 mph2.6 kmh 29.97 in1014.9 mb 0.00 in0.0 mm 0.00 in0.0 mm 0.05 in1.3 mm
09:00 PM 43.0°F6.1°C 42.5°F5.8°C 98% 0.5 mph SW0.8 kmh SW 1.6 mph2.6 kmh 29.97 in1014.9 mb 0.00 in0.0 mm 0.00 in0.0 mm 0.05 in1.3 mm
09:15 PM 43.0°F6.1°C 42.5°F5.8°C 98% 0.6 mph SW1.0 kmh SW 1.6 mph2.6 kmh 29.97 in1014.9 mb 0.00 in0.0 mm 0.00 in0.0 mm 0.05 in1.3 mm
09:30 PM 42.4°F5.8°C 42.2°F5.7°C 99% 0.7 mph SE1.1 kmh SE 1.6 mph2.6 kmh 29.96 in1014.6 mb 0.00 in0.0 mm 0.00 in0.0 mm 0.05 in1.3 mm
09:45 PM 42.1°F5.6°C 41.8°F5.4°C 99% 0.3 mph SW0.5 kmh SW 1.6 mph2.6 kmh 29.96 in1014.6 mb 0.00 in0.0 mm 0.00 in0.0 mm 0.05 in1.3 mm
10:00 PM 41.5°F5.3°C 41.3°F5.2°C 99% 0.4 mph SSW0.6 kmh SSW 1.6 mph2.6 kmh 29.97 in1014.9 mb 0.00 in0.0 mm 0.00 in0.0 mm 0.05 in1.3 mm
10:15 PM 41.4°F5.2°C 41.1°F5.1°C 99% 0.6 mph SW1.0 kmh SW 1.6 mph2.6 kmh 29.97 in1014.9 mb 0.00 in0.0 mm 0.00 in0.0 mm 0.05 in1.3 mm
10:45 PM 41.4°F5.2°C 41.1°F5.1°C 99% 1.0 mph SW1.6 kmh SW 2.2 mph3.5 kmh 29.96 in1014.6 mb 0.00 in0.0 mm 0.00 in0.0 mm 0.05 in1.3 mm
11:00 PM 41.9°F5.5°C 41.6°F5.3°C 99% 1.1 mph SW1.8 kmh SW 2.2 mph3.5 kmh 29.96 in1014.6 mb 0.00 in0.0 mm 0.00 in0.0 mm 0.04 in1.0 mm
11:15 PM 42.4°F5.8°C 42.2°F5.7°C 99% 0.1 mph S0.2 kmh S 0.7 mph1.1 kmh 29.95 in1014.2 mb 0.00 in0.0 mm 0.00 in0.0 mm 0.04 in1.0 mm
11:30 PM 43.3°F6.3°C 42.8°F6.0°C 98% 0.8 mph SSW1.3 kmh SSW 2.2 mph3.5 kmh 29.95 in1014.2 mb 0.00 in0.0 mm 0.00 in0.0 mm 0.04 in1.0 mm
11:45 PM 43.3°F6.3°C 42.8°F6.0°C 98% 0.6 mph SW1.0 kmh SW 1.6 mph2.6 kmh 29.93 in1013.5 mb 0.00 in0.0 mm 0.00 in0.0 mm 0.04 in1.0 mm